メインページ
METAR-TAF:

METAR-TAF

空港 :

ナタール, リオグランデ・ド・ノルテ州, ブラジル

緯度: 05-46-05S, 経度: 035-22-34W, 海抜: 88m

現時点の気象観測

当レポートは27分前の17:00(UTC)に作成
の風 12kt、南/南東から南西の間で変化する
気温 28°C
湿度 66%
気圧 1013 hPa
視程10km以上
高度3000ftの雲は散在している

METAR: SBSG 231700Z 18012KT 150V230 9999 SCT030 28/21 Q1013

時間: 14:27 (17:27 UTC)

予報

当レポートは7時間27分前の10:00(UTC)に作成
予報は23日の 12時(UTC)から 24日の 12時(UTC)まで有効
の風 13kt
視程: 8000m
高度2000ftの千切れ雲あり
23日の 17時(UTC)から 23日の 19時(UTC)まで徐々に
高度2000ftの雲は散在している
23日の 21時(UTC)から 23日の 22時(UTC)まで徐々に
の風 7kt
24日の 01時(UTC)から 24日の 03時(UTC)まで徐々に
の風 8kt
高度1500ftの千切れ雲あり
高度2500ftの雲はほとんどない, 塔状積雲.

TAF: SBSG 231000Z 2312/2412 18013KT 8000 BKN020 TX29/2316Z TN22/2407Z BECMG 2317/2319 SCT020 BECMG 2321/2322 18007KT BECMG 2401/2403 21005KT BEC MG 2410/2411 19008KT BKN015 FEW025TCU RMK PEI

4,000以上の空港の気象観測と天気予報(METAR報とTAF報)

利用可能な観測所は地図上に黄色い丸と赤い丸で示す。

丸の上にカーソルを重ねると観測所名を参照できる。

次にクリックすると気象観測と天気予報を参照できる。

マップの切り替え:黒色「×」印の緑ボタンをクリックして拡大、「-」印の緑ボタンをクリックして縮小、緑色の三角印をクリックして隣りの地図に切り替え


METAR-TAF: